Terminal Aerodrome Forecast
Issued by NWS Wilmington, OH

Current Version | Previous Version | Graphics & Text | Print | Product List | Glossary On
Versions: 1 2 3 4 5 6 7 8 9 10 11 12 13 14 15 16 17
000
FTUS41 KILN 010400 AAA
TAFILN
TAF AMD
KILN 010412Z 0104/0124 35010KT P6SM BKN015
     FM010700 34009KT P6SM FEW050
     FM011600 36012KT P6SM BKN050
     FM012300 36006KT P6SM SCT050=

USA.gov is the U.S. government's official web portal to all federal, state and local government web resources and services.